createdAt,value
2023-03-23T15:59:42.719Z,1.10
2023-03-23T16:02:22.360Z,1.02
2023-03-23T16:04:52.732Z,1.65
2023-03-23T16:07:24.484Z,0.98
2023-03-23T16:09:52.816Z,1.33
2023-03-23T16:12:21.401Z,1.55
2023-03-23T16:14:49.756Z,1.75
2023-03-23T16:17:21.754Z,0.90
2023-03-23T16:19:51.515Z,1.58
2023-03-23T16:22:19.863Z,0.93
2023-03-23T16:24:48.357Z,1.65
2023-03-23T16:27:17.207Z,1.13
2023-03-23T16:30:02.125Z,1.17
2023-03-23T16:35:00.677Z,1.75
2023-03-23T16:37:33.326Z,1.30
2023-03-23T16:40:02.428Z,1.70
2023-03-23T16:42:30.948Z,1.30
2023-03-23T16:44:59.310Z,1.83
2023-03-23T16:47:27.718Z,1.42
2023-03-23T16:49:56.164Z,2.42
2023-03-23T16:52:26.023Z,1.27
2023-03-23T16:54:54.384Z,2.15
2023-03-23T16:57:22.833Z,1.30
2023-03-23T16:59:51.595Z,1.45
2023-03-23T17:02:20.131Z,1.13
2023-03-23T17:04:48.504Z,0.90
2023-03-23T17:07:16.957Z,1.38
2023-03-23T17:09:46.732Z,0.95
2023-03-23T17:12:15.105Z,1.00
2023-03-23T17:14:43.539Z,1.25
2023-03-23T17:17:12.014Z,0.57
2023-03-23T17:19:41.451Z,0.95
2023-03-23T17:22:09.944Z,1.25
2023-03-23T17:24:38.286Z,0.93
2023-03-23T17:27:08.097Z,0.90
2023-03-23T17:29:36.539Z,1.42
2023-03-23T17:32:05.650Z,1.40
2023-03-23T17:34:34.244Z,1.27
2023-03-23T17:37:02.786Z,0.93
2023-03-23T17:39:31.969Z,1.50
2023-03-23T17:42:12.641Z,0.88
2023-03-23T17:44:41.997Z,1.30
2023-03-23T17:47:10.461Z,1.35
2023-03-23T17:49:38.846Z,1.00
2023-03-23T17:52:07.533Z,1.42
2023-03-23T17:54:36.065Z,1.17
2023-03-23T17:57:05.300Z,1.20
2023-03-23T17:59:35.037Z,1.35
2023-03-23T18:02:03.631Z,1.65
2023-03-23T18:04:32.053Z,1.60
2023-03-23T18:07:00.656Z,2.28
2023-03-23T18:09:29.046Z,2.28
2023-03-23T18:11:57.707Z,1.73
2023-03-23T18:14:26.214Z,2.10
2023-03-23T18:16:56.164Z,1.85
2023-03-23T18:19:24.549Z,1.65
2023-03-23T18:21:52.994Z,1.88
2023-03-23T18:24:21.764Z,1.85
2023-03-23T18:26:50.245Z,2.65
2023-03-23T18:29:18.853Z,1.60
2023-03-23T18:31:47.459Z,2.30
2023-03-23T18:34:46.565Z,1.88
2023-03-23T18:37:15.389Z,2.00
2023-03-23T18:39:43.767Z,1.85
2023-03-23T18:42:12.130Z,2.03
2023-03-23T18:44:41.260Z,3.45
2023-03-23T18:47:09.622Z,2.00
2023-03-23T18:49:38.145Z,2.08
2023-03-23T18:52:08.423Z,2.50
2023-03-23T18:54:38.332Z,1.90
2023-03-23T18:57:06.942Z,2.10
2023-03-23T18:59:35.991Z,2.50
2023-03-23T19:02:04.469Z,2.40
2023-03-23T19:04:33.234Z,2.90
2023-03-23T19:07:03.443Z,2.53
2023-03-23T19:09:34.837Z,2.30
2023-03-23T19:12:03.335Z,2.63
2023-03-23T19:14:31.762Z,2.95
2023-03-23T19:17:00.123Z,3.30
2023-03-23T19:19:29.946Z,3.22
2023-03-23T19:21:58.441Z,2.83
2023-03-23T19:24:30.183Z,3.05
2023-03-23T19:27:00.108Z,2.55
2023-03-23T19:29:29.492Z,2.95
2023-03-23T19:31:58.726Z,3.92
2023-03-23T19:34:30.582Z,2.90
2023-03-23T19:37:05.558Z,3.40
2023-03-23T19:39:35.156Z,3.58
2023-03-23T19:42:05.251Z,2.45
2023-03-23T19:44:34.558Z,3.17
2023-03-23T19:47:03.382Z,2.72
2023-03-23T19:49:31.734Z,2.78
2023-03-23T19:52:09.099Z,2.20
2023-03-23T19:54:41.353Z,2.10
2023-03-23T19:57:12.130Z,3.13
2023-03-23T19:59:40.930Z,3.22
2023-03-23T20:02:09.618Z,2.20
2023-03-23T20:04:38.307Z,2.92
2023-03-23T20:07:08.315Z,2.13
2023-03-23T20:09:38.589Z,2.75
2023-03-23T20:12:07.547Z,2.08
2023-03-23T20:14:38.253Z,2.17
2023-03-23T20:17:09.906Z,1.88
2023-03-23T20:19:38.728Z,2.55
2023-03-23T20:22:08.163Z,2.22
2023-03-23T20:24:38.051Z,2.17
2023-03-23T20:27:06.683Z,1.40
2023-03-23T20:29:36.408Z,2.50
2023-03-23T20:32:07.467Z,1.77
2023-03-23T20:34:36.530Z,1.80
2023-03-23T20:37:05.014Z,1.70
2023-03-23T20:39:34.655Z,1.13
2023-03-23T20:42:05.879Z,1.80
2023-03-23T20:44:36.180Z,1.83
2023-03-23T20:47:06.783Z,1.80
2023-03-23T20:49:37.270Z,1.52
2023-03-23T20:52:09.004Z,1.58
2023-03-23T20:54:38.243Z,1.25
2023-03-23T20:57:06.917Z,1.88
2023-03-23T20:59:36.993Z,1.88
2023-03-23T21:02:07.959Z,1.67
2023-03-23T21:04:37.378Z,1.40
2023-03-23T21:07:06.327Z,1.48
2023-03-23T21:09:35.721Z,1.83
2023-03-23T21:12:06.275Z,1.92
2023-03-23T21:14:35.153Z,1.48
2023-03-23T21:17:03.689Z,2.05
2023-03-23T21:19:34.367Z,1.67
2023-03-23T21:22:02.971Z,2.25
2023-03-23T21:24:32.565Z,2.17
2023-03-23T21:27:02.829Z,1.88
2023-03-23T21:29:31.809Z,2.08
2023-03-23T21:32:08.393Z,1.70
2023-03-23T21:34:39.656Z,1.40
2023-03-23T21:37:08.733Z,1.50
2023-03-23T21:39:37.449Z,1.95
2023-03-23T21:42:07.170Z,1.42
2023-03-23T21:44:36.218Z,0.82
2023-03-23T21:47:05.489Z,1.98
2023-03-23T21:49:34.105Z,1.17
2023-03-23T21:52:04.133Z,1.50
2023-03-23T21:54:34.402Z,1.27
2023-03-23T21:57:03.142Z,1.48
2023-03-23T21:59:31.503Z,1.38
2023-03-23T22:02:02.271Z,1.30
2023-03-23T22:04:30.786Z,1.05
2023-03-23T22:06:59.299Z,0.82
2023-03-23T22:09:30.330Z,1.00
2023-03-23T22:12:02.506Z,1.02
2023-03-23T22:14:31.049Z,1.00
2023-03-23T22:17:00.561Z,0.90
2023-03-23T22:19:28.988Z,0.90
2023-03-23T22:21:57.536Z,1.20
2023-03-23T22:24:26.309Z,0.88
2023-03-23T22:26:56.625Z,1.70
2023-03-23T22:29:25.549Z,1.85
2023-03-23T22:31:54.212Z,1.13
2023-03-23T22:34:22.818Z,1.70
2023-03-23T22:36:51.624Z,1.92
2023-03-23T22:39:20.307Z,1.73
2023-03-23T22:41:49.951Z,1.33
2023-03-23T22:44:20.257Z,1.85
2023-03-23T22:46:49.240Z,2.10
2023-03-23T22:49:18.019Z,1.95
2023-03-23T22:51:47.173Z,1.95
2023-03-23T22:54:15.891Z,2.85
2023-03-23T22:56:44.566Z,2.90
2023-03-23T22:59:13.635Z,1.98
2023-03-23T23:01:43.655Z,2.58
2023-03-23T23:04:12.316Z,3.05
2023-03-23T23:06:41.247Z,2.60
2023-03-23T23:09:10.439Z,2.20
2023-03-23T23:11:39.461Z,2.40
2023-03-23T23:14:08.128Z,2.10
2023-03-23T23:16:36.736Z,1.83
2023-03-23T23:19:06.683Z,1.95
2023-03-23T23:21:35.601Z,1.63
2023-03-23T23:24:04.895Z,2.70
2023-03-23T23:26:33.350Z,1.83
2023-03-23T23:29:02.978Z,1.83
2023-03-23T23:31:34.432Z,1.67
2023-03-23T23:34:04.873Z,1.70
2023-03-23T23:36:34.911Z,1.30
2023-03-23T23:39:05.886Z,1.70
2023-03-23T23:41:34.660Z,1.95
2023-03-23T23:44:03.960Z,1.10
2023-03-23T23:46:32.720Z,1.73
2023-03-23T23:49:01.734Z,1.20
2023-03-23T23:51:34.157Z,1.08
2023-03-23T23:54:04.795Z,1.02
2023-03-23T23:56:33.349Z,0.60
2023-03-23T23:59:02.132Z,0.88
